Airfield :
LOGIN :

Register | Disclaimer

   EN    FR    IT 

 










Legend :    VFR   Marginal VFR   IFR   Intensive IFR   Very Intensive IFR
Visi :
Ceiling :
>= 8 km
>= 3000ft
5 to 8 km
1000 to 3000 ft
1500m to 5 km
500 to 1000 ft
800 to 1500m
200 to 500 ft
< 800m
< 200 ft
Symbols :   Thunderstorms  Fog  Heavy snow  Heavy precipitations  Wind > 20 kt
SIGMETs :     Misc.  Thunderstorms  Icing  Turbulence  Mountain Waves  Volcanic Ashes






- Airport Elevation : 3368 ft


LSGC - Les Eplatures

CURRENT METAR :
  • 290450Z AUTO VRB01KT 9999 NCD 04/01 Q1012

EXPIRED METARs :
  • 290420Z AUTO 00000KT 9999 NCD 03/00 Q1012
  • 290350Z AUTO 26002KT 9999 NSC 03/00 Q1012
  • 290320Z AUTO VRB01KT 9999 NSC 05/01 Q1012
  • 290250Z AUTO 06001KT 9999 NSC 05/01 Q1012
  • 290220Z AUTO 10001KT 9999 NSC 04/00 Q1012

TAF TAF LSGC
Valid from the 29 at 03:00 until the 29 at 12:00 UTC


290225Z 2903/2912 VRB02KT CAVOK
BECMG 2908/2910 9999 FEW040



MET'MAP, your aeronautical weather chart ! - Copyright ORBIFLY December 2007 - Disclaimer

ORBIFLY MET'MAP TEAM :

Programming & Development : Alexandra Zaïnal
Original concept : Baudouin d'Aumeries
Technical & hardware support : Manuel Goepfert
Assistance : Marc-Olivier Méhu

Contact : metmap@orbifly.com




SOURCES & CREDITS :

   NOAA